KPIR/PIR METAR and TAF weather

Enter ICAO airport designator
Station Type Date Time Source
KPIR METAR 2018/12/19 02:53 UTC NOAA

KPIR 190253Z AUTO 00000KT 10SM CLR M02/M04 A2970 RMK AO2 SLP076 T10221039 56013


Station Type Date Time Source
KPIR Decoded METAR 2018/12/19 02:53 UTC NOAA

PIERRE REGIONAL AIRPORT, SD, United States (KPIR) 44-23N 100-17W 526M
Dec 18, 2018 - 09:53 PM EST / 2018.12.19 0253 UTC
Wind: Calm:0
Visibility: 10 mile(s):0
Sky conditions: clear
Temperature: 28.0 F (-2.2 C)
Dew Point: 25.0 F (-3.9 C)
Relative Humidity: 88%
Pressure (altimeter): 29.7 in. Hg (1005 hPa)
Pressure tendency: 0.04 inches (1.3 hPa) lower than three hours ago
ob: KPIR 190253Z AUTO 00000KT 10SM CLR M02/M04 A2970 RMK AO2 SLP076 T10221039 56013
cycle: 3

Station Type Date Time Source
KPIR TAF 2018/12/18 18:42 UTC NOAA

TAF KPIR 181739Z 1818/1918 29005KT P6SM FEW250
FM190900 25005KT P6SM VCSH BKN090
FM191400 27007KT P6SM BKN080 WS020/32040KT
FM191600 30019G28KT P6SM BKN220 WS020/31040KT


Example: see airport list